Galena, Nevada Weather observations

Data are for 60 minute period ending nearest time listed.
 Day   Time    Ave.   Ave.  Ave.  Vector   Max.   Total    Solar   
  of    of     Air    Rel.  Wind   Wind    Wind  Precip.   Rad.    
Year   Day     Temp.  Hum.  Speed  Dir.    Gust                    
2026   (PST)    F      %     mph   deg.    mph     in.     W/m2    
------------------------------------------------------------------- 
 245   20:00   55.0    39   17.0   191     28.0    2.02       0  
 245   21:00   56.0    26   15.0   221     33.0    2.02       0  
 245   22:00   56.0    22   14.0   225     27.0    2.02       0  
 245   23:00   55.0    26   15.0   214     30.0    2.02       0  
 246    0:00   54.0    34   10.0   209     23.0    2.02       0  
 246    1:00   54.0    41   11.0   189     19.0    2.02       0  
 246    2:00   54.0    37   11.0   187     23.0    2.02       0  
 246    3:00   54.0    37   12.0   186     23.0    2.02       0  
 246    4:00   54.0    27   15.0   190     27.0    2.02       0  
 246    5:00   54.0    26   11.0   203     27.0    2.02       0  
 246    6:00   54.0    37    4.0   263     21.0    2.02       7  
 246    7:00   54.0    35   10.0   355     17.0    2.02      91  
 246    8:00   56.0    34    6.0    31     15.0    2.02     125  
 246    9:00   65.0    29    7.0    47     16.0    2.02     623  
 246   10:00   65.0    32   13.0   184     29.0    2.02     795  
 246   11:00   60.0    38   15.0   194     31.0    2.02     354  
 246   12:00   66.0    32   14.0   198     28.0    2.02     684  
 246   13:00   64.0    36   16.0   207     31.0    2.02     906  
 246   14:00   64.0    39   19.0   189     32.0    2.02     797  
 246   15:00   59.0    49   10.0   204     26.0    2.02     231  
 246   16:00   60.0    50   14.0   200     29.0    2.02     358  
 246   17:00   58.0    50   15.0   181     29.0    2.02     171  
 246   18:00   56.0    60   13.0   182     35.0    2.02     108  
 246   19:00   56.0    54   13.0   178     26.0    2.02      13  

Return to Galena, Nevada graphs page.


Western Regional Climate Center,wrcc@dri.edu